Terminal Aerodrome Forecast
Issued by NWS Central Illinois

Home | Current Version | Previous Version | Text Only | Print | Product List | Glossary On
Versions: 1 2 3 4 5 6 7 8 9 10 11 12 13 14 15 16 17
000
FTUS43 KILX 281745
TAFSPI
TAF
KSPI 281745Z 2818/2918 18008KT P6SM SCT035
     FM290400 18004KT P6SM VCSH SCT035 BKN120
     FM291400 33006KT P6SM VCTS SCT050CB BKN150=

USA.gov is the U.S. government's official web portal to all federal, state and local government web resources and services.